createdAt,value
2018-08-30T00:00:45.008Z,944.13
2018-08-30T00:01:45.020Z,944.16
2018-08-30T00:02:44.834Z,944.16
2018-08-30T00:03:44.760Z,944.11
2018-08-30T00:04:44.654Z,944.08
2018-08-30T00:05:44.565Z,944.09
2018-08-30T00:06:44.477Z,944.00
2018-08-30T00:07:44.392Z,944.09
2018-08-30T00:08:44.429Z,944.02
2018-08-30T00:09:44.212Z,944.07
2018-08-30T00:10:44.135Z,944.12
2018-08-30T00:11:44.035Z,944.09
2018-08-30T00:12:43.948Z,944.11
2018-08-30T00:13:43.877Z,944.09
2018-08-30T00:14:43.767Z,944.13
2018-08-30T00:15:43.797Z,944.17
2018-08-30T00:16:43.593Z,944.17
2018-08-30T00:17:43.503Z,944.21
2018-08-30T00:18:43.427Z,944.24
2018-08-30T00:19:43.324Z,944.29
2018-08-30T00:20:43.239Z,944.29
2018-08-30T00:21:43.150Z,944.27
2018-08-30T00:22:43.162Z,944.30
2018-08-30T00:23:42.987Z,944.28
2018-08-30T00:24:42.886Z,944.27
2018-08-30T00:25:42.793Z,944.21
2018-08-30T00:26:42.731Z,944.24
2018-08-30T00:27:42.622Z,944.25
2018-08-30T00:28:42.542Z,944.22
2018-08-30T00:29:42.540Z,944.24
2018-08-30T00:30:42.349Z,944.21
2018-08-30T00:31:42.264Z,944.21
2018-08-30T00:32:42.173Z,944.22
2018-08-30T00:33:42.099Z,944.24
2018-08-30T00:34:41.996Z,944.27
2018-08-30T00:35:41.909Z,944.26
2018-08-30T00:36:41.819Z,944.30
2018-08-30T00:37:41.729Z,944.22
2018-08-30T00:38:41.661Z,944.22
2018-08-30T00:39:41.555Z,944.23
2018-08-30T00:40:41.467Z,944.24
2018-08-30T00:41:41.377Z,944.22
2018-08-30T00:42:41.292Z,944.25
2018-08-30T00:43:41.312Z,944.24
2018-08-30T00:44:41.112Z,944.22
2018-08-30T00:45:41.021Z,944.22
2018-08-30T00:46:40.934Z,944.21
2018-08-30T00:47:40.855Z,944.25
2018-08-30T00:48:40.768Z,944.25
2018-08-30T00:49:40.791Z,944.29
2018-08-30T00:50:40.576Z,944.29
2018-08-30T00:51:40.490Z,944.35
2018-08-30T00:52:40.396Z,944.36
2018-08-30T00:53:40.323Z,944.37
2018-08-30T00:54:40.217Z,944.38
2018-08-30T00:55:40.131Z,944.45
2018-08-30T00:56:40.043Z,944.41
2018-08-30T00:57:39.952Z,944.41
2018-08-30T00:58:39.879Z,944.39
2018-08-30T00:59:39.776Z,944.38
2018-08-30T01:00:39.685Z,944.35
2018-08-30T01:01:39.596Z,944.40
2018-08-30T01:02:39.507Z,944.32
2018-08-30T01:03:39.432Z,944.37
2018-08-30T01:04:39.327Z,944.40
2018-08-30T01:05:39.240Z,944.38
2018-08-30T01:06:39.146Z,944.40
2018-08-30T01:07:39.059Z,944.48
2018-08-30T01:08:38.995Z,944.44
2018-08-30T01:09:38.876Z,944.44
2018-08-30T01:10:38.790Z,944.40
2018-08-30T01:11:38.698Z,944.47
2018-08-30T01:12:38.618Z,944.42
2018-08-30T01:13:38.536Z,944.43
2018-08-30T01:14:38.429Z,944.44
2018-08-30T01:15:38.341Z,944.46
2018-08-30T01:16:38.252Z,944.45
2018-08-30T01:17:38.161Z,944.52
2018-08-30T01:18:38.087Z,944.51
2018-08-30T01:19:37.977Z,944.55
2018-08-30T01:20:37.888Z,944.55
2018-08-30T01:21:37.796Z,944.58
2018-08-30T01:22:37.710Z,944.63
2018-08-30T01:23:37.637Z,944.69
2018-08-30T01:24:37.531Z,944.77
2018-08-30T01:25:37.436Z,944.78
2018-08-30T01:26:37.347Z,944.85
2018-08-30T01:27:37.256Z,944.85
2018-08-30T01:28:37.182Z,944.90
2018-08-30T01:29:37.074Z,944.91
2018-08-30T01:30:36.990Z,944.90
2018-08-30T01:31:36.911Z,944.88
2018-08-30T01:32:36.804Z,944.91
2018-08-30T01:33:36.731Z,944.89
2018-08-30T01:34:36.622Z,944.93
2018-08-30T01:35:36.528Z,944.92
2018-08-30T01:36:36.440Z,944.87
2018-08-30T01:37:36.347Z,944.88
2018-08-30T01:38:36.260Z,944.89
2018-08-30T01:39:36.180Z,944.92
2018-08-30T01:40:36.075Z,944.89
2018-08-30T01:41:36.013Z,944.86
2018-08-30T01:42:35.891Z,944.91
2018-08-30T01:43:35.804Z,944.92
2018-08-30T01:44:35.726Z,944.79
2018-08-30T01:45:35.615Z,944.84
2018-08-30T01:46:35.527Z,944.79
2018-08-30T01:47:35.433Z,944.79
2018-08-30T01:48:35.342Z,944.75
2018-08-30T01:49:35.269Z,944.74
2018-08-30T01:50:35.156Z,944.71
2018-08-30T01:51:35.067Z,944.72
2018-08-30T01:52:34.972Z,944.67
2018-08-30T01:53:34.883Z,944.68
2018-08-30T01:54:34.806Z,944.70
2018-08-30T01:55:34.698Z,944.68
2018-08-30T01:56:34.609Z,944.66
2018-08-30T01:57:34.516Z,944.67
2018-08-30T01:58:34.423Z,944.65
2018-08-30T01:59:34.350Z,944.59
2018-08-30T02:00:34.237Z,944.61
2018-08-30T02:01:34.151Z,944.59
2018-08-30T02:02:34.055Z,944.61
2018-08-30T02:03:33.962Z,944.59
2018-08-30T02:04:33.886Z,944.59
2018-08-30T02:05:33.777Z,944.58
2018-08-30T02:06:33.686Z,944.57
2018-08-30T02:07:33.594Z,944.56
2018-08-30T02:08:33.504Z,944.50
2018-08-30T02:09:33.428Z,944.51
2018-08-30T02:10:33.320Z,944.53
2018-08-30T02:11:33.227Z,944.50
2018-08-30T02:12:33.141Z,944.50
2018-08-30T02:13:33.042Z,944.49
2018-08-30T02:14:32.967Z,944.47
2018-08-30T02:15:32.858Z,944.48
2018-08-30T02:16:32.772Z,944.43
2018-08-30T02:17:32.675Z,944.38
2018-08-30T02:18:32.588Z,944.38
2018-08-30T02:19:32.510Z,944.35
2018-08-30T02:20:32.405Z,944.31
2018-08-30T02:21:32.310Z,944.33
2018-08-30T02:22:32.216Z,944.33
2018-08-30T02:23:32.124Z,944.31
2018-08-30T02:24:32.060Z,944.37
2018-08-30T02:25:31.940Z,944.26
2018-08-30T02:26:31.852Z,944.30
2018-08-30T02:27:31.759Z,944.24
2018-08-30T02:28:31.959Z,944.29
2018-08-30T02:29:31.592Z,944.28
2018-08-30T02:30:31.485Z,944.29
2018-08-30T02:31:31.394Z,944.29
2018-08-30T02:32:31.300Z,944.25
2018-08-30T02:33:31.221Z,944.27
2018-08-30T02:34:31.136Z,944.25
2018-08-30T02:35:31.133Z,944.26
2018-08-30T02:36:30.937Z,944.23
2018-08-30T02:37:30.846Z,944.30
2018-08-30T02:38:30.751Z,944.28
2018-08-30T02:39:30.680Z,944.25
2018-08-30T02:40:30.566Z,944.26
2018-08-30T02:41:30.478Z,944.30
2018-08-30T02:42:30.501Z,944.29
2018-08-30T02:43:30.295Z,944.29
2018-08-30T02:44:30.221Z,944.32
2018-08-30T02:45:30.111Z,944.25
2018-08-30T02:46:30.020Z,944.29
2018-08-30T02:47:29.929Z,944.27
2018-08-30T02:48:29.836Z,944.28
2018-08-30T02:49:29.866Z,944.28
2018-08-30T02:50:29.655Z,944.28
2018-08-30T02:51:29.561Z,944.36
2018-08-30T02:52:29.472Z,944.33
2018-08-30T02:53:29.384Z,944.35
2018-08-30T02:54:29.301Z,944.30
2018-08-30T02:55:29.199Z,944.32
2018-08-30T02:56:29.204Z,944.33
2018-08-30T02:57:29.022Z,944.29
2018-08-30T02:58:28.924Z,944.27
2018-08-30T02:59:28.849Z,944.27
2018-08-30T03:00:28.739Z,944.29
2018-08-30T03:01:28.648Z,944.28
2018-08-30T03:02:28.558Z,944.28
2018-08-30T03:03:28.574Z,944.24
2018-08-30T03:04:28.393Z,944.24
2018-08-30T03:05:28.281Z,944.29
2018-08-30T03:06:28.191Z,944.26
2018-08-30T03:07:28.104Z,944.28
2018-08-30T03:08:28.010Z,944.24
2018-08-30T03:09:27.931Z,944.26
2018-08-30T03:10:27.924Z,944.27
2018-08-30T03:11:27.732Z,944.29
2018-08-30T03:12:27.642Z,944.32
2018-08-30T03:13:27.551Z,944.27
2018-08-30T03:14:27.465Z,944.34
2018-08-30T03:15:27.384Z,944.29
2018-08-30T03:16:27.282Z,944.30
2018-08-30T03:17:27.285Z,944.32
2018-08-30T03:18:27.094Z,944.28
2018-08-30T03:19:27.026Z,944.29
2018-08-30T03:20:26.915Z,944.26
2018-08-30T03:21:26.823Z,944.29
2018-08-30T03:22:26.732Z,944.30
2018-08-30T03:23:26.636Z,944.31
2018-08-30T03:24:26.680Z,944.32
2018-08-30T03:25:26.456Z,944.34
2018-08-30T03:26:26.365Z,944.31
2018-08-30T03:27:26.275Z,944.33
2018-08-30T03:28:26.184Z,944.39
2018-08-30T03:29:26.093Z,944.41
2018-08-30T03:30:26.233Z,944.44
2018-08-30T03:31:26.019Z,944.45
2018-08-30T03:32:25.818Z,944.41
2018-08-30T03:33:25.731Z,944.40
2018-08-30T03:34:25.636Z,944.42
2018-08-30T03:35:25.561Z,944.42
2018-08-30T03:36:25.458Z,944.40
2018-08-30T03:37:25.364Z,944.45
2018-08-30T03:38:25.269Z,944.40
2018-08-30T03:39:25.186Z,944.45
2018-08-30T03:40:25.109Z,944.40
2018-08-30T03:41:25.002Z,944.43
2018-08-30T03:42:24.905Z,944.40
2018-08-30T03:43:24.816Z,944.45
2018-08-30T03:44:24.726Z,944.42
2018-08-30T03:45:24.650Z,944.42
2018-08-30T03:46:24.549Z,944.47
2018-08-30T03:47:24.451Z,944.44
2018-08-30T03:48:24.362Z,944.45
2018-08-30T03:49:24.271Z,944.43
2018-08-30T03:50:24.196Z,944.41
2018-08-30T03:51:24.090Z,944.42
2018-08-30T03:52:23.999Z,944.39
2018-08-30T03:53:23.905Z,944.39
2018-08-30T03:54:23.817Z,944.40
2018-08-30T03:55:23.744Z,944.41
2018-08-30T03:56:23.632Z,944.38
2018-08-30T03:57:23.544Z,944.34
2018-08-30T03:58:23.455Z,944.33
2018-08-30T03:59:23.360Z,944.31
2018-08-30T04:00:23.293Z,944.29
2018-08-30T04:01:23.184Z,944.24
2018-08-30T04:02:23.089Z,944.23
2018-08-30T04:03:23.001Z,944.26
2018-08-30T04:04:23.041Z,944.23
2018-08-30T04:05:22.835Z,944.22
2018-08-30T04:06:22.727Z,944.18
2018-08-30T04:07:22.638Z,944.19
2018-08-30T04:08:22.546Z,944.22
2018-08-30T04:09:22.458Z,944.17
2018-08-30T04:10:22.385Z,944.20
2018-08-30T04:11:22.281Z,944.16
2018-08-30T04:12:22.183Z,944.21
2018-08-30T04:13:22.155Z,944.21
2018-08-30T04:14:22.002Z,944.22
2018-08-30T04:15:21.930Z,944.24
2018-08-30T04:16:21.824Z,944.27
2018-08-30T04:17:21.727Z,944.23
2018-08-30T04:18:21.641Z,944.28
2018-08-30T04:19:21.550Z,944.27
2018-08-30T04:20:21.474Z,944.25
2018-08-30T04:21:21.369Z,944.29
2018-08-30T04:22:21.276Z,944.27
2018-08-30T04:23:21.187Z,944.30
2018-08-30T04:24:21.095Z,944.28
2018-08-30T04:25:21.022Z,944.26
2018-08-30T04:26:20.912Z,944.24
2018-08-30T04:27:20.824Z,944.26
2018-08-30T04:28:20.734Z,944.26
2018-08-30T04:29:20.643Z,944.24
2018-08-30T04:30:20.571Z,944.26
2018-08-30T04:31:20.475Z,944.29
2018-08-30T04:32:20.373Z,944.30
2018-08-30T04:33:20.279Z,944.27
2018-08-30T04:34:20.192Z,944.28
2018-08-30T04:35:20.120Z,944.26
2018-08-30T04:36:20.016Z,944.32
2018-08-30T04:37:19.930Z,944.32
2018-08-30T04:38:19.830Z,944.33
2018-08-30T04:39:19.745Z,944.30
2018-08-30T04:40:19.665Z,944.34
2018-08-30T04:41:19.556Z,944.33
2018-08-30T04:42:19.503Z,944.32
2018-08-30T04:43:19.380Z,944.31
2018-08-30T04:44:19.287Z,944.33
2018-08-30T04:45:19.215Z,944.31
2018-08-30T04:46:19.121Z,944.29
2018-08-30T04:47:19.014Z,944.27
2018-08-30T04:48:18.925Z,944.33
2018-08-30T04:49:18.835Z,944.31
2018-08-30T04:50:18.827Z,944.32
2018-08-30T04:51:18.653Z,944.32
2018-08-30T04:52:18.564Z,944.32
2018-08-30T04:53:18.469Z,944.31
2018-08-30T04:54:18.484Z,944.33
2018-08-30T04:55:18.309Z,944.31
2018-08-30T04:56:18.222Z,944.34
2018-08-30T04:57:18.115Z,944.39
2018-08-30T04:58:18.019Z,944.40
2018-08-30T04:59:17.931Z,944.39
2018-08-30T05:00:17.861Z,944.40
2018-08-30T05:01:17.751Z,944.40
2018-08-30T05:02:17.661Z,944.41
2018-08-30T05:03:17.570Z,944.41
2018-08-30T05:04:17.481Z,944.44
2018-08-30T05:05:17.404Z,944.38
2018-08-30T05:06:17.298Z,944.41
2018-08-30T05:07:17.208Z,944.35
2018-08-30T05:08:17.217Z,944.37
2018-08-30T05:09:17.034Z,944.37
2018-08-30T05:10:16.944Z,944.35
2018-08-30T05:11:16.865Z,944.37
2018-08-30T05:12:16.758Z,944.38
2018-08-30T05:13:16.665Z,944.35
2018-08-30T05:14:16.578Z,944.37
2018-08-30T05:15:16.589Z,944.37
2018-08-30T05:16:16.419Z,944.39
2018-08-30T05:17:16.305Z,944.38
2018-08-30T05:18:16.228Z,944.41
2018-08-30T05:19:16.127Z,944.44
2018-08-30T05:20:16.042Z,944.46
2018-08-30T05:21:15.962Z,944.43
2018-08-30T05:22:15.956Z,944.45
2018-08-30T05:23:15.765Z,944.47
2018-08-30T05:24:15.673Z,944.45
2018-08-30T05:25:15.587Z,944.49
2018-08-30T05:26:15.513Z,944.45
2018-08-30T05:27:15.403Z,944.44
2018-08-30T05:28:15.313Z,944.50
2018-08-30T05:29:15.335Z,944.47
2018-08-30T05:30:15.136Z,944.52
2018-08-30T05:31:15.062Z,944.49
2018-08-30T05:32:14.952Z,944.50
2018-08-30T05:33:14.863Z,944.54
2018-08-30T05:34:14.776Z,944.51
2018-08-30T05:35:14.682Z,944.49
2018-08-30T05:36:14.711Z,944.49
2018-08-30T05:37:14.503Z,944.49
2018-08-30T05:38:14.414Z,944.50
2018-08-30T05:39:14.339Z,944.51
2018-08-30T05:40:14.234Z,944.51
2018-08-30T05:41:14.155Z,944.53
2018-08-30T05:42:14.050Z,944.55
2018-08-30T05:43:14.061Z,944.57
2018-08-30T05:44:13.869Z,944.55
2018-08-30T05:45:13.778Z,944.55
2018-08-30T05:46:13.710Z,944.58
2018-08-30T05:47:13.603Z,944.62
2018-08-30T05:48:13.513Z,944.55
2018-08-30T05:49:13.419Z,944.62
2018-08-30T05:50:13.445Z,944.55
2018-08-30T05:51:13.257Z,944.57
2018-08-30T05:52:13.149Z,944.56
2018-08-30T05:53:13.071Z,944.55
2018-08-30T05:54:12.976Z,944.58
2018-08-30T05:55:12.882Z,944.55
2018-08-30T05:56:12.807Z,944.55
2018-08-30T05:57:12.803Z,944.60
2018-08-30T05:58:12.611Z,944.60
2018-08-30T05:59:12.517Z,944.62
2018-08-30T06:00:12.427Z,944.66
2018-08-30T06:01:12.354Z,944.65
2018-08-30T06:02:12.244Z,944.69
2018-08-30T06:03:12.157Z,944.68
2018-08-30T06:04:12.167Z,944.72
2018-08-30T06:05:11.976Z,944.74
2018-08-30T06:06:11.899Z,944.74
2018-08-30T06:07:11.801Z,944.73
2018-08-30T06:08:11.718Z,944.75
2018-08-30T06:09:11.615Z,944.80
2018-08-30T06:10:11.534Z,944.84
2018-08-30T06:11:11.559Z,944.81
2018-08-30T06:12:11.341Z,944.84
2018-08-30T06:13:11.391Z,944.85
2018-08-30T06:14:11.161Z,944.84
2018-08-30T06:15:11.070Z,944.89
2018-08-30T06:16:10.996Z,944.88
2018-08-30T06:17:10.894Z,944.91
2018-08-30T06:18:10.902Z,944.93
2018-08-30T06:19:10.709Z,944.89
2018-08-30T06:20:10.617Z,944.91
2018-08-30T06:21:10.543Z,944.97
2018-08-30T06:22:10.438Z,944.93
2018-08-30T06:23:10.349Z,945.00
2018-08-30T06:24:10.258Z,944.94
2018-08-30T06:25:10.167Z,944.95
2018-08-30T06:26:10.101Z,944.98
2018-08-30T06:27:09.985Z,944.93
2018-08-30T06:28:09.893Z,945.00
2018-08-30T06:29:09.821Z,944.98
2018-08-30T06:30:09.713Z,944.98
2018-08-30T06:31:09.638Z,945.01
2018-08-30T06:32:09.531Z,944.97
2018-08-30T06:33:09.439Z,945.05
2018-08-30T06:34:09.389Z,945.09
2018-08-30T06:35:09.274Z,945.07
2018-08-30T06:36:09.186Z,945.08
2018-08-30T06:37:09.078Z,945.12
2018-08-30T06:38:09.000Z,945.12
2018-08-30T06:39:08.895Z,945.13
2018-08-30T06:40:08.808Z,945.17
2018-08-30T06:41:08.730Z,945.17
2018-08-30T06:42:08.626Z,945.16
2018-08-30T06:43:08.534Z,945.16
2018-08-30T06:44:08.446Z,945.17
2018-08-30T06:45:08.354Z,945.19
2018-08-30T06:46:08.282Z,945.19
2018-08-30T06:47:08.170Z,945.20
2018-08-30T06:48:08.080Z,945.25
2018-08-30T06:49:08.028Z,945.24
2018-08-30T06:50:07.900Z,945.27
2018-08-30T06:51:07.823Z,945.29
2018-08-30T06:52:07.715Z,945.28
2018-08-30T06:53:07.625Z,945.31
2018-08-30T06:54:07.536Z,945.29
2018-08-30T06:55:07.447Z,945.35
2018-08-30T06:56:07.373Z,945.30
2018-08-30T06:57:07.264Z,945.34
2018-08-30T06:58:07.174Z,945.30
2018-08-30T06:59:07.082Z,945.32
2018-08-30T07:00:06.993Z,945.40
2018-08-30T07:01:06.905Z,945.40
2018-08-30T07:02:06.828Z,945.40
2018-08-30T07:03:06.721Z,945.48
2018-08-30T07:04:06.672Z,945.48
2018-08-30T07:05:06.539Z,945.51
2018-08-30T07:06:06.449Z,945.50
2018-08-30T07:07:06.376Z,945.50
2018-08-30T07:08:06.300Z,945.49
2018-08-30T07:09:06.177Z,945.57
2018-08-30T07:10:06.085Z,945.60
2018-08-30T07:11:06.000Z,945.64
2018-08-30T07:12:05.921Z,945.77
2018-08-30T07:13:05.813Z,945.72
2018-08-30T07:14:05.723Z,945.79
2018-08-30T07:15:05.671Z,945.65
2018-08-30T07:16:05.557Z,945.67
2018-08-30T07:17:05.468Z,945.64
2018-08-30T07:18:05.360Z,945.69
2018-08-30T07:19:05.271Z,945.69
2018-08-30T07:20:05.182Z,945.67
2018-08-30T07:21:05.152Z,945.69
2018-08-30T07:22:05.018Z,945.84
2018-08-30T07:23:04.911Z,945.82
2018-08-30T07:24:04.874Z,945.75
2018-08-30T07:25:04.730Z,945.72
2018-08-30T07:26:04.640Z,945.72
2018-08-30T07:27:04.569Z,945.66
2018-08-30T07:28:04.465Z,945.73
2018-08-30T07:29:04.371Z,945.70
2018-08-30T07:30:04.283Z,945.66
2018-08-30T07:31:04.189Z,945.70
2018-08-30T07:32:04.119Z,945.68
2018-08-30T07:33:04.007Z,945.69
2018-08-30T07:34:03.921Z,945.72
2018-08-30T07:35:03.939Z,945.68
2018-08-30T07:36:03.740Z,945.75
2018-08-30T07:37:03.667Z,945.70
2018-08-30T07:38:03.565Z,945.74
2018-08-30T07:39:03.470Z,945.72
2018-08-30T07:40:03.382Z,945.76
2018-08-30T07:41:03.390Z,945.75
2018-08-30T07:42:03.214Z,945.80
2018-08-30T07:43:03.109Z,945.83
2018-08-30T07:44:03.085Z,945.86
2018-08-30T07:45:02.926Z,945.88
2018-08-30T07:46:02.836Z,945.87
2018-08-30T07:47:02.761Z,945.88
2018-08-30T07:48:02.656Z,945.95
2018-08-30T07:49:02.565Z,945.96
2018-08-30T07:50:02.484Z,946.00
2018-08-30T07:51:02.442Z,946.05
2018-08-30T07:52:02.327Z,946.03
2018-08-30T07:53:02.203Z,946.14
2018-08-30T07:54:02.116Z,946.10
2018-08-30T07:55:02.139Z,946.09
2018-08-30T07:56:01.934Z,946.14
2018-08-30T07:57:01.855Z,946.23
2018-08-30T07:58:01.752Z,946.26
2018-08-30T07:59:01.662Z,946.29
2018-08-30T08:00:01.645Z,946.32
2018-08-30T08:01:01.483Z,946.35
2018-08-30T08:02:01.508Z,946.35
2018-08-30T08:03:01.297Z,946.33
2018-08-30T08:04:01.210Z,946.39
2018-08-30T08:05:01.114Z,946.38
2018-08-30T08:06:01.092Z,946.39
2018-08-30T08:07:00.968Z,946.40
2018-08-30T08:08:00.845Z,946.43
2018-08-30T08:09:00.853Z,946.44
2018-08-30T08:10:00.662Z,946.43
2018-08-30T08:11:00.574Z,946.40
2018-08-30T08:12:00.562Z,946.45
2018-08-30T08:13:00.390Z,946.43
2018-08-30T08:14:00.301Z,946.41
2018-08-30T08:15:00.231Z,946.39
2018-08-30T08:16:00.220Z,946.45
2018-08-30T08:17:00.044Z,946.42
2018-08-30T08:17:59.935Z,946.45
2018-08-30T08:18:59.864Z,946.46
2018-08-30T08:19:59.759Z,946.57
2018-08-30T08:20:59.665Z,946.51
2018-08-30T08:21:59.593Z,946.56
2018-08-30T08:22:59.481Z,946.57
2018-08-30T08:23:59.494Z,946.57
2018-08-30T08:24:59.301Z,946.64
2018-08-30T08:25:59.214Z,946.63
2018-08-30T08:26:59.137Z,946.58
2018-08-30T08:27:59.033Z,946.61
2018-08-30T08:28:58.941Z,946.56
2018-08-30T08:29:58.850Z,946.53
2018-08-30T08:30:58.860Z,946.57
2018-08-30T08:31:58.685Z,946.56
2018-08-30T08:32:58.578Z,946.55
2018-08-30T08:33:58.487Z,946.59
2018-08-30T08:34:58.398Z,946.57
2018-08-30T08:35:58.306Z,946.56
2018-08-30T08:36:58.235Z,946.56
2018-08-30T08:37:58.231Z,946.57
2018-08-30T08:38:58.036Z,946.54
2018-08-30T08:39:57.950Z,946.62
2018-08-30T08:40:57.860Z,946.62
2018-08-30T08:41:57.783Z,946.63
2018-08-30T08:42:57.675Z,946.61
2018-08-30T08:43:57.584Z,946.64
2018-08-30T08:44:57.592Z,946.59
2018-08-30T08:45:57.403Z,946.67
2018-08-30T08:46:57.337Z,946.65
2018-08-30T08:47:57.242Z,946.66
2018-08-30T08:48:57.133Z,946.62
2018-08-30T08:49:57.044Z,946.66
2018-08-30T08:50:56.950Z,946.61
2018-08-30T08:51:56.969Z,946.64
2018-08-30T08:52:56.785Z,946.62
2018-08-30T08:53:56.679Z,946.68
2018-08-30T08:54:56.590Z,946.71
2018-08-30T08:55:56.500Z,946.76
2018-08-30T08:56:56.422Z,946.68
2018-08-30T08:57:56.337Z,946.72
2018-08-30T08:58:56.407Z,946.69
2018-08-30T08:59:56.141Z,946.78
2018-08-30T09:00:56.044Z,946.77
2018-08-30T09:01:55.955Z,946.80
2018-08-30T09:02:55.900Z,946.79
2018-08-30T09:03:55.778Z,946.77
2018-08-30T09:04:55.688Z,946.78
2018-08-30T09:05:55.594Z,946.83
2018-08-30T09:06:55.540Z,946.84
2018-08-30T09:07:55.457Z,946.87
2018-08-30T09:08:55.326Z,946.79
2018-08-30T09:09:55.232Z,946.80
2018-08-30T09:10:55.146Z,946.80
2018-08-30T09:11:55.054Z,946.88
2018-08-30T09:12:54.985Z,946.91
2018-08-30T09:13:54.876Z,946.96
2018-08-30T09:14:54.787Z,946.99
2018-08-30T09:15:54.697Z,946.88
2018-08-30T09:16:54.603Z,946.87
2018-08-30T09:17:54.544Z,947.00
2018-08-30T09:18:54.425Z,946.95
2018-08-30T09:19:54.476Z,946.93
2018-08-30T09:20:54.246Z,947.00
2018-08-30T09:21:54.157Z,947.13
2018-08-30T09:22:54.146Z,947.23
2018-08-30T09:23:53.976Z,947.19
2018-08-30T09:24:53.883Z,947.24
2018-08-30T09:25:53.796Z,947.09
2018-08-30T09:26:53.779Z,947.04
2018-08-30T09:27:53.635Z,947.03
2018-08-30T09:28:53.527Z,947.15
2018-08-30T09:29:53.436Z,947.14
2018-08-30T09:30:53.393Z,947.09
2018-08-30T09:31:53.260Z,947.06
2018-08-30T09:32:53.191Z,947.09
2018-08-30T09:33:53.104Z,947.08
2018-08-30T09:34:52.993Z,947.09
2018-08-30T09:35:52.900Z,947.12
2018-08-30T09:36:52.812Z,947.23
2018-08-30T09:37:52.741Z,947.11
2018-08-30T09:38:52.635Z,947.16
2018-08-30T09:39:52.545Z,947.25
2018-08-30T09:40:52.455Z,947.14
2018-08-30T09:41:52.366Z,947.09
2018-08-30T09:42:52.293Z,947.14
2018-08-30T09:43:52.211Z,947.08
2018-08-30T09:44:52.097Z,947.09
2018-08-30T09:45:52.004Z,947.00
2018-08-30T09:46:51.917Z,947.08
2018-08-30T09:47:51.847Z,947.04
2018-08-30T09:48:51.736Z,947.01
2018-08-30T09:49:51.675Z,947.06
2018-08-30T09:50:51.561Z,947.06
2018-08-30T09:51:51.476Z,946.99
2018-08-30T09:52:51.398Z,947.04
2018-08-30T09:53:51.288Z,947.11
2018-08-30T09:54:51.200Z,947.10
2018-08-30T09:55:51.225Z,947.08
2018-08-30T09:56:51.104Z,947.11
2018-08-30T09:57:50.958Z,947.08
2018-08-30T09:58:50.837Z,947.06
2018-08-30T09:59:50.747Z,947.06
2018-08-30T10:00:50.662Z,947.08
2018-08-30T10:01:50.571Z,947.06
2018-08-30T10:02:50.496Z,947.06
2018-08-30T10:03:50.508Z,947.06
2018-08-30T10:04:50.365Z,947.13
2018-08-30T10:05:50.211Z,947.10
2018-08-30T10:06:50.120Z,947.10
2018-08-30T10:07:50.047Z,947.13
2018-08-30T10:08:49.938Z,947.17
2018-08-30T10:09:49.849Z,947.16
2018-08-30T10:10:49.760Z,947.14
2018-08-30T10:11:49.676Z,947.12
2018-08-30T10:12:49.596Z,947.13
2018-08-30T10:13:49.490Z,947.14
2018-08-30T10:14:49.405Z,947.18
2018-08-30T10:15:49.323Z,947.22
2018-08-30T10:16:49.221Z,947.17
2018-08-30T10:17:49.153Z,947.17
2018-08-30T10:18:49.043Z,947.21
2018-08-30T10:19:48.953Z,947.17
2018-08-30T10:20:48.862Z,947.18
2018-08-30T10:21:48.772Z,947.22
2018-08-30T10:22:48.698Z,947.16
2018-08-30T10:23:48.593Z,947.15
2018-08-30T10:24:48.503Z,947.21
2018-08-30T10:25:48.414Z,947.24
2018-08-30T10:26:48.323Z,947.21
2018-08-30T10:27:48.274Z,947.24
2018-08-30T10:28:48.248Z,947.21
2018-08-30T10:29:48.054Z,947.24
2018-08-30T10:30:47.966Z,947.18
2018-08-30T10:31:47.875Z,947.22
2018-08-30T10:32:47.793Z,947.14
2018-08-30T10:33:47.716Z,947.22
2018-08-30T10:34:47.611Z,947.22
2018-08-30T10:35:47.619Z,947.17
2018-08-30T10:36:47.431Z,947.20
2018-08-30T10:37:47.339Z,947.22
2018-08-30T10:38:47.263Z,947.26
2018-08-30T10:39:47.157Z,947.26
2018-08-30T10:40:47.066Z,947.32
2018-08-30T10:41:46.976Z,947.26
2018-08-30T10:42:47.012Z,947.27
2018-08-30T10:43:46.816Z,947.30
2018-08-30T10:44:46.709Z,947.27
2018-08-30T10:45:46.619Z,947.29
2018-08-30T10:46:46.526Z,947.30
2018-08-30T10:47:46.440Z,947.29
2018-08-30T10:48:46.363Z,947.30
2018-08-30T10:49:46.392Z,947.27
2018-08-30T10:50:46.168Z,947.22
2018-08-30T10:51:46.083Z,947.22
2018-08-30T10:52:45.989Z,947.26
2018-08-30T10:53:45.931Z,947.26
2018-08-30T10:54:45.811Z,947.20
2018-08-30T10:55:45.722Z,947.23
2018-08-30T10:56:45.731Z,947.33
2018-08-30T10:57:45.538Z,947.30
2018-08-30T10:58:45.466Z,947.29
2018-08-30T10:59:45.360Z,947.34
2018-08-30T11:00:45.272Z,947.24
2018-08-30T11:01:45.179Z,947.27
2018-08-30T11:02:45.092Z,947.29
2018-08-30T11:03:45.118Z,947.29
2018-08-30T11:04:44.908Z,947.33
2018-08-30T11:05:44.821Z,947.27
2018-08-30T11:06:44.730Z,947.33
2018-08-30T11:07:44.640Z,947.30
2018-08-30T11:08:44.564Z,947.33
2018-08-30T11:09:44.462Z,947.39
2018-08-30T11:10:44.469Z,947.42
2018-08-30T11:11:44.281Z,947.45
2018-08-30T11:12:44.230Z,947.47
2018-08-30T11:13:44.114Z,947.41
2018-08-30T11:14:44.008Z,947.44
2018-08-30T11:15:43.918Z,947.42
2018-08-30T11:16:43.835Z,947.44
2018-08-30T11:17:43.834Z,947.45
2018-08-30T11:18:43.664Z,947.47
2018-08-30T11:19:43.558Z,947.46
2018-08-30T11:20:43.517Z,947.48
2018-08-30T11:21:43.393Z,947.45
2018-08-30T11:22:43.285Z,947.45
2018-08-30T11:23:43.213Z,947.42
2018-08-30T11:24:43.204Z,947.47
2018-08-30T11:25:43.016Z,947.42
2018-08-30T11:26:42.923Z,947.42
2018-08-30T11:27:42.843Z,947.45
2018-08-30T11:28:42.765Z,947.42
2018-08-30T11:29:42.651Z,947.49
2018-08-30T11:30:42.560Z,947.50
2018-08-30T11:31:42.567Z,947.50
2018-08-30T11:32:42.379Z,947.54
2018-08-30T11:33:42.303Z,947.52
2018-08-30T11:34:42.199Z,947.56
2018-08-30T11:35:42.105Z,947.63
2018-08-30T11:36:42.018Z,947.67
2018-08-30T11:37:41.966Z,947.65
2018-08-30T11:38:41.850Z,947.72
2018-08-30T11:39:41.744Z,947.77
2018-08-30T11:40:41.654Z,947.71
2018-08-30T11:41:41.656Z,947.77
2018-08-30T11:42:41.470Z,947.78
2018-08-30T11:43:41.392Z,947.81
2018-08-30T11:44:41.287Z,947.84
2018-08-30T11:45:41.194Z,947.83
2018-08-30T11:46:41.102Z,947.80
2018-08-30T11:47:41.013Z,947.83
2018-08-30T11:48:40.939Z,947.83
2018-08-30T11:49:40.829Z,947.82
2018-08-30T11:50:40.735Z,947.84
2018-08-30T11:51:40.649Z,947.82
2018-08-30T11:52:40.623Z,947.85
2018-08-30T11:53:40.482Z,947.89
2018-08-30T11:54:40.376Z,947.86
2018-08-30T11:55:40.282Z,947.90
2018-08-30T11:56:40.195Z,947.92
2018-08-30T11:57:40.098Z,947.89
2018-08-30T11:58:40.025Z,947.83
2018-08-30T11:59:39.918Z,947.83
2018-08-30T12:00:39.828Z,947.85
2018-08-30T12:01:39.731Z,947.85
2018-08-30T12:02:39.641Z,947.83
2018-08-30T12:03:39.570Z,947.93
2018-08-30T12:04:39.459Z,947.91
2018-08-30T12:05:39.368Z,947.92
2018-08-30T12:06:39.278Z,947.91
2018-08-30T12:07:39.183Z,947.91
2018-08-30T12:08:39.109Z,947.99
2018-08-30T12:09:39.000Z,948.00
2018-08-30T12:10:38.943Z,947.96
2018-08-30T12:11:38.873Z,947.95
2018-08-30T12:12:38.731Z,947.95
2018-08-30T12:13:38.652Z,947.92
2018-08-30T12:14:38.546Z,947.97
2018-08-30T12:15:38.453Z,948.00
2018-08-30T12:16:38.362Z,947.95
2018-08-30T12:17:38.271Z,947.97
2018-08-30T12:18:38.209Z,948.01
2018-08-30T12:19:38.086Z,948.04
2018-08-30T12:20:38.074Z,948.06
2018-08-30T12:21:37.907Z,948.12
2018-08-30T12:22:37.812Z,948.16
2018-08-30T12:23:37.724Z,948.17
2018-08-30T12:24:37.648Z,948.21
2018-08-30T12:25:37.538Z,948.21
2018-08-30T12:26:37.450Z,948.24
2018-08-30T12:27:37.374Z,948.22